Time;durP1;ratioP1;P1;durP2;ratioP2;P2;SDS_P1;SDS_P2;PMS_P1;PMS_P2;Temp;Humidity;BMP_temperature;BMP_pressure;BME280_temperature;BME280_humidity;BME280_pressure;Samples;Min_cycle;Max_cycle;Signal;HPM_P1;HPM_P2
2023/04/17 00:02:03;;;;;;;31.63;21.23;;;;;;;7.39;65.79;98631.19;5092737;28;20131;-72
2023/04/17 00:04:29;;;;;;;28.88;20.30;;;;;;;7.35;66.36;98634.72;5092506;28;20030;-72
2023/04/17 00:06:55;;;;;;;31.40;20.40;;;;;;;7.30;66.01;98630.09;5092490;28;20119;-72
2023/04/17 00:09:20;;;;;;;30.50;19.73;;;;;;;7.25;66.61;98630.91;5092450;28;20116;-72
2023/04/17 00:11:46;;;;;;;29.70;19.83;;;;;;;7.21;66.26;98624.34;5090814;28;20370;-72
2023/04/17 00:14:11;;;;;;;30.92;20.90;;;;;;;7.19;66.14;98631.97;5092177;28;20028;-72
2023/04/17 00:16:36;;;;;;;32.03;21.00;;;;;;;7.12;66.27;98628.69;5092424;28;20031;-71
2023/04/17 00:19:02;;;;;;;32.53;21.77;;;;;;;7.07;66.13;98620.50;5092160;28;20940;-71
2023/04/17 00:21:28;;;;;;;32.88;20.85;;;;;;;7.04;66.51;98626.47;5092115;28;20024;-72
2023/04/17 00:23:54;;;;;;;33.22;21.60;;;;;;;6.98;66.38;98629.19;5090807;28;20439;-72
2023/04/17 00:26:19;;;;;;;36.17;22.30;;;;;;;6.95;66.44;98628.91;5092130;28;20093;-72
2023/04/17 00:28:46;;;;;;;41.00;24.05;;;;;;;6.93;66.59;98626.44;5092027;28;20374;-72
2023/04/17 00:31:12;;;;;;;41.50;23.40;;;;;;;6.91;66.69;98627.81;5091727;28;20097;-72
2023/04/17 00:33:37;;;;;;;43.10;22.38;;;;;;;6.87;66.64;98626.69;5092123;28;20111;-72
2023/04/17 00:36:03;;;;;;;40.83;22.67;;;;;;;6.83;66.71;98624.50;5090531;28;20114;-72
2023/04/17 00:38:28;;;;;;;39.33;22.98;;;;;;;6.81;66.67;98629.41;5091680;28;20131;-71
2023/04/17 00:40:53;;;;;;;45.90;25.38;;;;;;;6.78;66.94;98629.94;5092036;28;20024;-71
2023/04/17 00:43:19;;;;;;;43.95;25.02;;;;;;;6.76;66.93;98625.84;5091776;28;20020;-72
2023/04/17 00:45:47;;;;;;;41.67;24.75;;;;;;;6.73;67.26;98634.56;5091516;28;20024;-72
2023/04/17 00:48:15;;;;;;;30.15;21.08;;;;;;;6.71;67.10;98634.84;5091546;28;20043;-71
2023/04/17 00:50:42;;;;;;;31.70;21.50;;;;;;;6.73;67.32;98631.84;5091823;28;20568;-72
2023/04/17 00:53:07;;;;;;;26.88;18.67;;;;;;;6.74;67.34;98637.00;5091652;28;20028;-72
2023/04/17 00:55:35;;;;;;;26.90;17.00;;;;;;;6.77;67.43;98638.41;5091544;28;20031;-71
2023/04/17 00:58:01;;;;;;;26.33;16.02;;;;;;;6.77;67.59;98639.19;5090220;28;20080;-72
2023/04/17 01:00:26;;;;;;;28.90;17.88;;;;;;;6.78;67.88;98649.03;5091405;28;20469;-72
2023/04/17 01:02:52;;;;;;;26.55;16.58;;;;;;;6.81;67.65;98647.69;5091212;28;20042;-71
2023/04/17 01:05:17;;;;;;;29.90;17.02;;;;;;;6.82;67.97;98638.41;5091464;28;20072;-72
2023/04/17 01:07:44;;;;;;;32.45;17.65;;;;;;;6.83;67.88;98635.41;5091334;28;20511;-72
2023/04/17 01:10:10;;;;;;;31.75;18.58;;;;;;;6.87;68.13;98637.59;5091394;28;20102;-71
2023/04/17 01:12:35;;;;;;;33.83;19.83;;;;;;;6.88;68.13;98645.53;5088709;28;20039;-72
2023/04/17 01:15:01;;;;;;;32.40;18.83;;;;;;;6.90;68.12;98642.53;5090671;28;20028;-72
2023/04/17 01:17:26;;;;;;;32.65;18.05;;;;;;;6.90;68.46;98646.09;5091164;28;20034;-71
2023/04/17 01:19:52;;;;;;;26.45;16.63;;;;;;;6.84;68.38;98639.78;5089836;28;20038;-72
2023/04/17 01:22:20;;;;;;;24.85;16.00;;;;;;;6.83;67.78;98638.13;5089929;28;20097;-71
2023/04/17 01:24:46;;;;;;;25.25;15.98;;;;;;;6.84;68.16;98637.06;5091258;28;20027;-71
2023/04/17 01:27:15;;;;;;;25.27;16.50;;;;;;;6.86;68.37;98644.97;5091140;28;20077;-73
2023/04/17 01:29:42;;;;;;;29.52;18.08;;;;;;;6.86;68.14;98636.81;5090968;28;20091;-72
2023/04/17 01:32:07;;;;;;;25.63;16.15;;;;;;;6.84;68.43;98639.78;5090786;28;20026;-72
2023/04/17 01:34:33;;;;;;;23.35;15.75;;;;;;;6.86;68.63;98639.53;5091048;28;20448;-72
2023/04/17 01:36:59;;;;;;;24.83;16.48;;;;;;;6.87;68.44;98629.44;5090724;28;20028;-72
2023/04/17 01:39:24;;;;;;;25.92;16.83;;;;;;;6.87;68.50;98632.16;5050649;28;20524;-72
2023/04/17 01:41:50;;;;;;;26.95;17.77;;;;;;;6.87;68.39;98629.44;5050934;28;20525;-72
2023/04/17 01:44:16;;;;;;;23.92;14.85;;;;;;;6.88;68.63;98625.63;5050752;28;20029;-72
2023/04/17 01:46:41;;;;;;;22.33;14.15;;;;;;;6.86;68.74;98631.34;5050593;28;20017;-72
2023/04/17 01:49:07;;;;;;;23.48;15.00;;;;;;;6.83;68.53;98623.69;5050922;28;20020;-72
2023/04/17 01:51:32;;;;;;;25.38;14.50;;;;;;;6.82;68.43;98625.59;5050821;28;20021;-73
2023/04/17 01:53:58;;;;;;;26.27;14.85;;;;;;;6.82;68.46;98622.88;5050526;28;20033;-72
2023/04/17 01:56:23;;;;;;;23.77;15.10;;;;;;;6.80;68.55;98624.25;5050789;28;20463;-72
2023/04/17 01:58:50;;;;;;;22.38;14.38;;;;;;;6.79;68.13;98619.88;5050553;28;20083;-72
2023/04/17 02:01:15;;;;;;;24.20;15.40;;;;;;;6.78;68.84;98623.69;5050524;28;20498;-72
2023/04/17 02:03:41;;;;;;;24.42;15.45;;;;;;;6.77;68.76;98630.22;5050322;28;20028;-72
2023/04/17 02:06:06;;;;;;;19.77;13.82;;;;;;;6.76;68.79;98623.94;5050776;28;20075;-72
2023/04/17 02:08:33;;;;;;;16.95;12.18;;;;;;;6.75;69.35;98625.03;5049528;28;20028;-72
2023/04/17 02:10:58;;;;;;;19.33;13.60;;;;;;;6.74;69.01;98628.81;5065893;28;20060;-71
2023/04/17 02:13:23;;;;;;;19.63;12.85;;;;;;;6.74;68.85;98630.75;5050396;28;20048;-72
2023/04/17 02:15:49;;;;;;;19.15;12.88;;;;;;;6.72;68.94;98638.38;5050476;28;20057;-72
2023/04/17 02:18:14;;;;;;;19.38;12.98;;;;;;;6.68;68.98;98629.91;5050488;28;20482;-72
2023/04/17 02:20:40;;;;;;;21.70;15.60;;;;;;;6.69;69.13;98637.81;5048967;28;20479;-72
2023/04/17 02:23:05;;;;;;;21.08;14.18;;;;;;;6.68;69.07;98636.19;5050245;28;20463;-72
2023/04/17 02:25:32;;;;;;;20.73;13.38;;;;;;;6.69;69.06;98631.56;5049997;28;20490;-72
2023/04/17 02:27:58;;;;;;;20.25;12.43;;;;;;;6.66;69.10;98640.25;5052654;28;20509;-72
2023/04/17 02:30:24;;;;;;;19.23;13.23;;;;;;;6.61;68.78;98634.78;5052526;28;20021;-72
2023/04/17 02:32:51;;;;;;;19.52;12.95;;;;;;;6.62;68.93;98645.41;5053797;28;20524;-72
2023/04/17 02:35:18;;;;;;;18.27;12.50;;;;;;;6.60;68.95;98642.13;5053916;28;20029;-72
2023/04/17 02:37:43;;;;;;;19.23;12.68;;;;;;;6.60;69.15;98646.78;5066116;28;20482;-72
2023/04/17 02:40:09;;;;;;;18.02;12.15;;;;;;;6.58;69.16;98640.78;5094023;28;20085;-72
2023/04/17 02:42:35;;;;;;;20.58;12.30;;;;;;;6.55;69.23;98639.38;5094101;28;20028;-72
2023/04/17 02:45:00;;;;;;;18.27;13.05;;;;;;;6.52;69.25;98640.75;5094372;28;20065;-72
2023/04/17 02:47:25;;;;;;;18.95;12.32;;;;;;;6.48;68.90;98645.06;5093939;28;20028;-72
2023/04/17 02:49:51;;;;;;;16.35;11.35;;;;;;;6.44;68.99;98641.25;5092518;28;20856;-72
2023/04/17 02:52:17;;;;;;;18.50;12.40;;;;;;;6.40;69.54;98651.03;5093716;28;20024;-72
2023/04/17 02:54:42;;;;;;;19.40;12.32;;;;;;;6.34;69.17;98650.19;5094068;28;20024;-73
2023/04/17 02:57:08;;;;;;;20.58;13.40;;;;;;;6.31;69.36;98647.19;5093906;28;20027;-72
2023/04/17 02:59:33;;;;;;;20.27;12.93;;;;;;;6.25;69.21;98644.41;5093941;28;20101;-72
2023/04/17 03:01:59;;;;;;;19.67;12.95;;;;;;;6.22;69.24;98655.00;5093700;28;20051;-72
2023/04/17 03:04:26;;;;;;;21.52;13.18;;;;;;;6.18;69.24;98653.88;5093363;28;20474;-72
2023/04/17 03:06:52;;;;;;;23.10;15.48;;;;;;;6.16;69.17;98656.03;5092369;28;20063;-73
2023/04/17 03:09:21;;;;;;;23.83;16.23;;;;;;;6.15;69.35;98655.25;5093595;28;20051;-73
2023/04/17 03:11:49;;;;;;;24.40;14.77;;;;;;;6.11;69.28;98656.84;5093198;28;20035;-73
2023/04/17 03:14:15;;;;;;;24.60;15.43;;;;;;;6.08;69.57;98669.09;5093244;28;20031;-73
2023/04/17 03:16:40;;;;;;;23.45;16.05;;;;;;;6.03;69.42;98660.06;5093300;28;20024;-73
2023/04/17 03:19:06;;;;;;;27.33;17.95;;;;;;;6.01;69.27;98662.22;5093011;28;20412;-73
2023/04/17 03:21:31;;;;;;;26.88;17.92;;;;;;;6.01;69.65;98656.75;5093157;28;20022;-73
2023/04/17 03:23:56;;;;;;;35.30;21.23;;;;;;;6.03;69.89;98660.06;5093399;28;20385;-73
2023/04/17 03:26:22;;;;;;;30.20;18.50;;;;;;;6.03;69.87;98655.44;5092944;28;20026;-73
2023/04/17 03:28:47;;;;;;;33.90;20.17;;;;;;;6.02;69.41;98658.41;5093131;28;20434;-72
2023/04/17 03:31:13;;;;;;;31.05;18.70;;;;;;;6.01;69.79;98656.75;5092974;28;20445;-73
2023/04/17 03:33:38;;;;;;;32.05;21.42;;;;;;;5.99;69.72;98659.72;5092677;28;20032;-73
2023/04/17 03:36:04;;;;;;;32.92;21.40;;;;;;;5.99;69.67;98664.34;5092919;28;20028;-73
2023/04/17 03:38:30;;;;;;;29.67;18.75;;;;;;;5.95;69.81;98662.13;5091996;28;20067;-73
2023/04/17 03:40:55;;;;;;;36.38;21.52;;;;;;;5.96;70.21;98666.50;5092931;28;20059;-72
2023/04/17 03:43:21;;;;;;;43.25;24.58;;;;;;;5.99;70.11;98672.50;5092888;28;20051;-73
2023/04/17 03:45:46;;;;;;;27.38;17.42;;;;;;;6.01;70.08;98675.81;5091463;28;20063;-73
2023/04/17 03:48:12;;;;;;;23.42;15.18;;;;;;;6.05;70.40;98672.34;5092881;28;20492;-73
2023/04/17 03:50:37;;;;;;;27.45;16.30;;;;;;;6.09;70.37;98672.63;5092534;28;20104;-73
2023/04/17 03:53:02;;;;;;;24.10;15.65;;;;;;;6.11;70.46;98675.91;5092411;28;20031;-73
2023/04/17 03:55:28;;;;;;;25.27;15.23;;;;;;;6.11;70.15;98673.19;5092525;28;20020;-73
2023/04/17 03:57:53;;;;;;;30.70;16.98;;;;;;;6.13;70.60;98673.75;5092179;28;20111;-73
2023/04/17 04:00:20;;;;;;;27.58;15.82;;;;;;;6.17;70.81;98682.19;5090981;28;20363;-73
2023/04/17 04:02:45;;;;;;;29.23;16.60;;;;;;;6.19;70.56;98685.47;5092320;28;20024;-73
2023/04/17 04:05:10;;;;;;;31.30;16.67;;;;;;;6.24;71.08;98689.09;5091505;28;20719;-73
2023/04/17 04:07:36;;;;;;;32.33;17.60;;;;;;;6.28;70.91;98686.63;5092205;28;20114;-73
2023/04/17 04:10:01;;;;;;;30.70;17.27;;;;;;;6.34;71.12;98692.94;5092111;28;20077;-72
2023/04/17 04:12:27;;;;;;;29.27;16.52;;;;;;;6.37;70.93;98687.78;5090705;28;20028;-73
2023/04/17 04:14:52;;;;;;;26.25;15.77;;;;;;;6.41;70.82;98685.34;5092318;28;20040;-73
2023/04/17 04:17:17;;;;;;;25.92;16.05;;;;;;;6.45;71.15;98682.94;5092379;28;20028;-73
2023/04/17 04:19:43;;;;;;;25.45;15.60;;;;;;;6.45;71.46;98675.56;5092661;28;20046;-73
2023/04/17 04:22:09;;;;;;;25.35;15.63;;;;;;;6.45;71.32;98683.75;5092024;28;20474;-73
2023/04/17 04:24:35;;;;;;;25.88;15.77;;;;;;;6.49;71.28;98682.13;5092056;28;20043;-72
2023/04/17 04:27:03;;;;;;;30.70;16.55;;;;;;;6.55;72.07;98686.53;5090937;28;20062;-73
2023/04/17 04:29:29;;;;;;;29.90;17.20;;;;;;;6.60;71.43;98693.91;5092035;28;20205;-72
2023/04/17 04:31:54;;;;;;;33.53;19.42;;;;;;;6.66;71.91;98697.50;5090601;28;20024;-73
2023/04/17 04:34:20;;;;;;;33.88;19.75;;;;;;;6.73;71.63;98699.97;5091965;28;20062;-73
2023/04/17 04:36:51;;;;;;;27.88;17.45;;;;;;;6.80;71.70;98709.56;5091792;28;20468;-73
2023/04/17 04:39:20;;;;;;;30.70;18.17;;;;;;;6.90;71.89;98708.81;5091668;28;20494;-73
2023/04/17 04:41:50;;;;;;;29.10;18.83;;;;;;;6.97;71.68;98703.91;5091828;28;20595;-73
2023/04/17 04:44:16;;;;;;;32.03;19.00;;;;;;;7.05;71.75;98699.03;5091895;28;20143;-73
2023/04/17 04:46:42;;;;;;;30.58;19.52;;;;;;;7.13;71.96;98709.41;5091729;28;20028;-73
2023/04/17 04:49:07;;;;;;;32.97;19.25;;;;;;;7.19;72.41;98699.34;5091138;28;20035;-72
2023/04/17 04:51:33;;;;;;;28.08;18.67;;;;;;;7.20;72.13;98699.09;5091144;28;20043;-73
2023/04/17 04:53:59;;;;;;;29.80;18.20;;;;;;;7.23;72.31;98700.44;5091501;28;20385;-73
2023/04/17 04:56:24;;;;;;;31.52;19.40;;;;;;;7.26;72.91;98706.19;5091495;28;20032;-73
2023/04/17 04:58:50;;;;;;;28.80;18.02;;;;;;;7.23;72.73;98711.34;5091695;28;20074;-72
2023/04/17 05:01:16;;;;;;;28.75;17.38;;;;;;;7.18;72.12;98714.91;5092423;28;20031;-73
2023/04/17 05:03:43;;;;;;;29.48;18.30;;;;;;;7.19;73.16;98719.28;5091575;28;20212;-73
2023/04/17 05:06:10;;;;;;;29.65;17.58;;;;;;;7.15;73.68;98716.25;5091327;28;20710;-73
2023/04/17 05:08:36;;;;;;;29.52;19.23;;;;;;;7.06;72.75;98712.41;5091537;28;20032;-73
2023/04/17 05:11:02;;;;;;;30.20;18.00;;;;;;;7.03;72.82;98710.22;5091415;28;20032;-73
2023/04/17 05:13:29;;;;;;;33.85;23.73;;;;;;;7.06;73.10;98722.47;5091174;28;20500;-74
2023/04/17 05:15:55;;;;;;;30.75;21.88;;;;;;;7.07;72.67;98714.03;5091343;28;20053;-73
2023/04/17 05:18:20;;;;;;;31.98;20.00;;;;;;;7.12;72.59;98719.53;5091193;28;20038;-73
2023/04/17 05:20:45;;;;;;;29.65;19.48;;;;;;;7.18;73.16;98722.25;5091215;28;20020;-73
2023/04/17 05:23:11;;;;;;;36.50;22.67;;;;;;;7.20;73.31;98715.47;5091366;28;20047;-73
2023/04/17 05:25:36;;;;;;;35.05;23.40;;;;;;;7.19;73.15;98722.00;5091105;28;20031;-73
2023/04/17 05:28:02;;;;;;;35.83;23.58;;;;;;;7.22;73.08;98716.00;5090774;28;20024;-73
2023/04/17 05:30:27;;;;;;;32.03;21.13;;;;;;;7.30;73.53;98726.41;5090958;28;20030;-73
2023/04/17 05:32:53;;;;;;;32.85;20.95;;;;;;;7.34;73.52;98720.38;5090812;28;20101;-73
2023/04/17 05:35:18;;;;;;;33.83;20.92;;;;;;;7.34;73.62;98717.66;5091073;28;20020;-73
2023/04/17 05:37:44;;;;;;;30.33;19.85;;;;;;;7.38;74.11;98724.22;5090461;28;20044;-73
2023/04/17 05:40:10;;;;;;;30.17;20.20;;;;;;;7.39;74.54;98725.84;5091035;28;20496;-73
2023/04/17 05:42:36;;;;;;;32.40;20.42;;;;;;;7.40;73.93;98727.50;5090767;28;20028;-73
2023/04/17 05:45:01;;;;;;;31.00;19.67;;;;;;;7.48;75.02;98726.19;5089785;28;20084;-73
2023/04/17 05:47:27;;;;;;;37.67;23.50;;;;;;;7.54;74.29;98727.84;5090820;28;20103;-73
2023/04/17 05:49:56;;;;;;;36.28;22.27;;;;;;;7.64;74.65;98730.56;5089514;28;20074;-73
2023/04/17 05:52:22;;;;;;;32.97;20.95;;;;;;;7.72;75.05;98729.22;5090558;28;20391;-73
2023/04/17 05:54:47;;;;;;;34.03;22.38;;;;;;;7.74;74.72;98733.31;5090515;28;20028;-73
2023/04/17 05:57:12;;;;;;;38.85;22.65;;;;;;;7.81;75.03;98729.50;5090904;28;20043;-73
2023/04/17 05:59:38;;;;;;;36.20;21.65;;;;;;;7.84;75.57;98727.03;5087679;28;20052;-72
2023/04/17 06:02:03;;;;;;;38.22;21.40;;;;;;;7.82;74.96;98733.88;5089010;28;20044;-73
2023/04/17 06:04:29;;;;;;;37.30;22.65;;;;;;;7.83;74.91;98736.31;5094476;28;20030;-73
2023/04/17 06:06:54;;;;;;;37.85;22.30;;;;;;;7.90;75.06;98733.34;5094810;28;20032;-73
2023/04/17 06:09:20;;;;;;;37.45;22.45;;;;;;;7.95;74.65;98737.97;5092039;28;20393;-72
2023/04/17 06:11:46;;;;;;;43.33;25.73;;;;;;;8.00;73.99;98724.34;5086229;28;20028;-73
2023/04/17 06:14:11;;;;;;;42.47;24.83;;;;;;;8.02;74.49;98730.34;5091245;28;20069;-71
2023/04/17 06:16:37;;;;;;;42.10;24.83;;;;;;;8.03;74.78;98731.97;5091621;28;20110;-72
2023/04/17 06:19:02;;;;;;;44.50;26.63;;;;;;;8.07;74.29;98733.09;5124909;27;20097;-72
2023/04/17 06:21:28;;;;;;;49.67;27.38;;;;;;;8.15;74.46;98731.72;5093396;28;20050;-74
2023/04/17 06:23:54;;;;;;;51.38;28.13;;;;;;;8.23;74.24;98749.44;5093607;28;20028;-75
2023/04/17 06:26:20;;;;;;;47.88;26.58;;;;;;;8.31;74.18;98749.75;5092209;28;20473;-72
2023/04/17 06:28:45;;;;;;;51.15;28.50;;;;;;;8.38;75.24;98756.81;5090369;28;20118;-73
2023/04/17 06:31:11;;;;;;;58.28;30.45;;;;;;;8.40;74.98;98744.53;5092825;28;20470;-72
2023/04/17 06:33:36;;;;;;;51.03;27.92;;;;;;;8.47;75.35;98753.28;5090175;28;20043;-72
2023/04/17 06:36:01;;;;;;;60.10;30.52;;;;;;;8.49;75.73;98750.28;5093863;28;20122;-73
2023/04/17 06:38:27;;;;;;;61.85;32.33;;;;;;;8.48;75.30;98759.56;5093213;28;20420;-73
2023/04/17 06:40:52;;;;;;;60.65;32.30;;;;;;;8.56;74.46;98750.84;5093199;28;20032;-76
2023/04/17 06:43:18;;;;;;;64.32;32.38;;;;;;;8.75;74.80;98755.72;5093296;28;20035;-74
2023/04/17 06:45:43;;;;;;;69.40;32.67;;;;;;;8.99;75.14;98757.84;5087688;28;20028;-74
2023/04/17 06:48:09;;;;;;;62.70;31.15;;;;;;;9.13;75.10;98753.44;5091941;28;20485;-73
2023/04/17 06:50:34;;;;;;;65.90;33.22;;;;;;;9.30;74.84;98747.63;5093437;28;20020;-75
2023/04/17 06:53:00;;;;;;;63.88;31.77;;;;;;;9.39;74.48;98759.59;5093231;28;20473;-73
2023/04/17 06:55:26;;;;;;;58.10;30.33;;;;;;;9.48;74.82;98754.38;5093098;28;20055;-73
2023/04/17 06:57:51;;;;;;;60.05;30.08;;;;;;;9.48;74.83;98753.53;5093004;28;20798;-73
2023/04/17 07:00:17;;;;;;;59.00;30.20;;;;;;;9.47;74.26;98754.63;5090886;28;20031;-74
2023/04/17 07:02:42;;;;;;;71.53;33.20;;;;;;;9.46;74.15;98753.84;5091270;28;20474;-73
2023/04/17 07:05:08;;;;;;;64.28;31.25;;;;;;;9.55;74.06;98758.72;5092667;28;20020;-73
2023/04/17 07:07:35;;;;;;;63.55;31.98;;;;;;;9.62;73.83;98759.22;5093406;28;20485;-74
2023/04/17 07:10:02;;;;;;;55.08;28.60;;;;;;;9.72;73.55;98761.09;5090197;28;20043;-73
2023/04/17 07:12:27;;;;;;;61.53;31.85;;;;;;;9.75;74.16;98766.81;5090107;28;20426;-72
2023/04/17 07:14:52;;;;;;;52.30;27.90;;;;;;;9.83;73.89;98771.69;5090425;28;20115;-72
2023/04/17 07:17:18;;;;;;;53.40;26.30;;;;;;;9.86;73.77;98773.03;5092286;28;20300;-72
2023/04/17 07:19:43;;;;;;;52.35;28.48;;;;;;;9.79;73.34;98762.41;5092408;28;20108;-72
2023/04/17 07:22:09;;;;;;;57.78;29.08;;;;;;;9.88;73.81;98770.84;5092656;28;20031;-72
2023/04/17 07:24:34;;;;;;;62.55;29.25;;;;;;;9.80;74.23;98769.53;5092352;28;20036;-71
2023/04/17 07:27:03;;;;;;;57.00;28.15;;;;;;;9.87;74.48;98776.59;5092387;28;20496;-72
2023/04/17 07:29:29;;;;;;;58.20;29.23;;;;;;;9.83;73.79;98774.44;5091765;28;20036;-71
2023/04/17 07:31:54;;;;;;;53.40;26.85;;;;;;;9.92;74.02;98777.38;5092028;28;20028;-71
2023/04/17 07:34:20;;;;;;;49.95;27.10;;;;;;;9.96;73.84;98785.88;5092831;28;20031;-72
2023/04/17 07:36:46;;;;;;;51.05;27.55;;;;;;;9.96;74.46;98789.41;5092261;28;20099;-73
2023/04/17 07:39:11;;;;;;;48.97;26.38;;;;;;;9.96;74.12;98786.69;5092169;28;20147;-73
2023/04/17 07:41:37;;;;;;;50.58;25.77;;;;;;;9.95;74.08;98793.25;5091916;28;20024;-72
2023/04/17 07:44:04;;;;;;;44.30;22.85;;;;;;;10.00;73.93;98803.34;5092262;28;20032;-73
2023/04/17 07:46:30;;;;;;;51.00;25.70;;;;;;;9.98;74.29;98803.66;5092374;28;20712;-73
2023/04/17 07:48:56;;;;;;;48.25;25.67;;;;;;;9.97;73.66;98807.50;5091669;28;20052;-72
2023/04/17 07:51:21;;;;;;;52.20;26.67;;;;;;;9.98;73.38;98803.66;5086133;28;20060;-71
2023/04/17 07:53:46;;;;;;;51.17;25.95;;;;;;;10.00;74.33;98797.88;5091452;28;20393;-71
2023/04/17 07:56:12;;;;;;;53.92;27.05;;;;;;;10.09;74.05;98803.59;5088911;28;20077;-73
2023/04/17 07:58:37;;;;;;;56.13;27.92;;;;;;;10.07;74.29;98806.59;5089669;28;20043;-73
2023/04/17 08:01:06;;;;;;;52.35;26.27;;;;;;;10.04;74.37;98809.09;5088455;28;20040;-74
2023/04/17 08:03:32;;;;;;;53.80;28.35;;;;;;;10.11;73.07;98815.09;5091601;28;20023;-73
2023/04/17 08:05:57;;;;;;;53.80;27.38;;;;;;;10.25;74.05;98812.53;5090348;28;20031;-74
2023/04/17 08:08:23;;;;;;;53.40;26.65;;;;;;;10.32;73.55;98810.28;5091880;28;20111;-73
2023/04/17 08:10:49;;;;;;;55.88;27.15;;;;;;;10.33;73.19;98806.44;5091329;28;20034;-74
2023/04/17 08:13:15;;;;;;;55.85;27.30;;;;;;;10.36;73.43;98813.25;5091995;28;20058;-74
2023/04/17 08:15:40;;;;;;;56.85;27.00;;;;;;;10.42;73.31;98806.66;5091602;28;20389;-73
2023/04/17 08:18:08;;;;;;;53.13;26.25;;;;;;;10.45;73.70;98813.47;5090665;28;20056;-72
2023/04/17 08:20:33;;;;;;;48.92;25.88;;;;;;;10.50;73.78;98808.78;5089887;28;20040;-72
2023/04/17 08:22:59;;;;;;;53.75;26.02;;;;;;;10.64;73.15;98800.72;5091860;28;20042;-74
2023/04/17 08:25:24;;;;;;;45.20;23.73;;;;;;;10.85;73.72;98809.56;5091262;28;20397;-71
2023/04/17 08:27:50;;;;;;;43.53;23.27;;;;;;;10.93;72.80;98810.84;5091351;28;20024;-71
2023/04/17 08:30:16;;;;;;;54.42;27.48;;;;;;;10.98;72.57;98804.53;5091682;28;20024;-72
2023/04/17 08:32:45;;;;;;;52.03;27.73;;;;;;;11.07;72.93;98801.94;5092131;28;20070;-73
2023/04/17 08:35:12;;;;;;;53.75;28.10;;;;;;;11.11;72.72;98803.81;5091498;28;20028;-73
2023/04/17 08:37:43;;;;;;;48.65;26.38;;;;;;;11.08;72.60;98803.59;5089506;28;20143;-80
2023/04/17 08:40:09;;;;;;;48.03;25.40;;;;;;;11.20;73.08;98808.66;5083193;28;20024;-73
2023/04/17 08:42:37;;;;;;;48.90;25.67;;;;;;;11.34;72.49;98809.59;5087543;28;20027;-73
2023/04/17 08:45:05;;;;;;;47.22;24.42;;;;;;;11.53;72.57;98809.66;5084367;28;20013;-74
2023/04/17 08:47:35;;;;;;;45.60;25.05;;;;;;;11.70;72.45;98798.16;5091397;28;20050;-70
2023/04/17 08:50:20;;;;;;;46.05;25.50;;;;;;;11.77;71.30;98808.78;5089053;28;20055;-73
2023/04/17 08:52:48;;;;;;;46.67;24.80;;;;;;;11.79;71.52;98803.00;5088814;28;20036;-73
2023/04/17 08:55:19;;;;;;;46.85;24.67;;;;;;;11.89;71.67;98803.69;5089145;28;20038;-73
2023/04/17 08:58:02;;;;;;;41.10;24.08;;;;;;;12.01;71.21;98807.94;5087469;28;20036;-73
2023/04/17 09:00:36;;;;;;;40.20;23.20;;;;;;;12.10;71.18;98808.09;5084634;28;20028;-74
2023/04/17 09:03:04;;;;;;;44.28;23.83;;;;;;;12.13;71.28;98799.25;5085022;28;20772;-72
2023/04/17 09:05:35;;;;;;;40.85;22.77;;;;;;;12.28;70.97;98803.69;5081340;28;20029;-74
2023/04/17 09:08:14;;;;;;;46.92;25.27;;;;;;;12.29;70.83;98799.81;5087782;28;20040;-74
2023/04/17 09:10:39;;;;;;;41.00;23.67;;;;;;;12.21;70.81;98806.84;5086808;28;20584;-73
2023/04/17 09:13:06;;;;;;;37.80;22.60;;;;;;;12.18;70.29;98802.72;5086940;28;20064;-72
2023/04/17 09:15:35;;;;;;;40.20;23.17;;;;;;;12.14;70.65;98804.44;5088050;28;20032;-76
2023/04/17 09:18:02;;;;;;;39.95;22.48;;;;;;;12.09;70.38;98799.00;5088206;28;20020;-74
2023/04/17 09:20:27;;;;;;;40.42;23.17;;;;;;;12.09;70.17;98801.75;5082956;28;20386;-71
2023/04/17 09:23:01;;;;;;;36.97;22.48;;;;;;;12.12;70.44;98798.41;5082400;28;20165;-72
2023/04/17 09:25:27;;;;;;;36.35;22.35;;;;;;;12.15;70.12;98794.28;5086829;28;20028;-74
2023/04/17 09:27:54;;;;;;;38.55;21.27;;;;;;;12.20;70.20;98799.69;5081935;28;20031;-75
2023/04/17 09:30:19;;;;;;;33.88;21.23;;;;;;;12.30;70.42;98801.47;5089386;28;20038;-74
2023/04/17 09:32:45;;;;;;;35.47;21.17;;;;;;;12.38;70.12;98800.78;5088264;28;20032;-73
2023/04/17 09:35:24;;;;;;;36.88;22.48;;;;;;;12.41;70.42;98794.69;5089646;28;20492;-73
2023/04/17 09:37:51;;;;;;;35.65;21.38;;;;;;;12.48;70.48;98794.28;5087198;28;20068;-73
2023/04/17 09:40:19;;;;;;;33.83;20.45;;;;;;;12.53;69.93;98793.38;5089062;28;20076;-72
2023/04/17 09:43:01;;;;;;;33.58;20.80;;;;;;;12.62;70.61;98792.41;5090163;28;20031;-72
2023/04/17 09:45:35;;;;;;;35.30;21.10;;;;;;;12.70;70.26;98792.81;5089416;28;20481;-74
2023/04/17 09:48:09;;;;;;;34.10;20.02;;;;;;;12.76;70.21;98788.84;5089658;28;20032;-73
2023/04/17 09:50:34;;;;;;;34.58;19.98;;;;;;;12.80;70.32;98784.38;5089484;28;20028;-74
2023/04/17 09:53:02;;;;;;;27.65;18.50;;;;;;;12.95;69.98;98783.28;5089590;28;20028;-73
2023/04/17 09:55:28;;;;;;;28.67;19.23;;;;;;;12.99;69.25;98778.81;5087216;28;20035;-73
2023/04/17 09:57:55;;;;;;;32.40;20.27;;;;;;;12.98;69.61;98779.13;5089671;28;20888;-73
2023/04/17 10:00:25;;;;;;;31.58;19.90;;;;;;;13.07;69.32;98774.50;5089553;28;20386;-73
2023/04/17 10:02:52;;;;;;;28.48;18.42;;;;;;;13.10;69.58;98771.97;5089738;28;20050;-73
2023/04/17 10:05:19;;;;;;;31.80;20.25;;;;;;;13.11;68.93;98764.53;5089350;28;20490;-73
2023/04/17 10:07:45;;;;;;;28.02;18.95;;;;;;;13.15;69.10;98753.72;5089477;28;20059;-73
2023/04/17 10:10:11;;;;;;;28.10;18.90;;;;;;;13.17;69.10;98760.56;5087946;28;20028;-73
2023/04/17 10:12:39;;;;;;;28.10;19.25;;;;;;;13.15;68.51;98771.06;5088801;28;20524;-73
2023/04/17 10:15:06;;;;;;;26.27;17.38;;;;;;;13.10;68.68;98763.72;5084763;28;20023;-72
2023/04/17 10:17:35;;;;;;;25.45;16.98;;;;;;;13.15;68.93;98760.03;5087715;28;20035;-72
2023/04/17 10:20:18;;;;;;;28.38;17.80;;;;;;;13.30;68.89;98761.66;5088752;28;20089;-72
2023/04/17 10:22:47;;;;;;;27.92;17.42;;;;;;;13.43;68.38;98754.56;5089001;28;20469;-73
2023/04/17 10:25:13;;;;;;;27.33;17.00;;;;;;;13.56;68.62;98752.91;5088797;28;20407;-74
2023/04/17 10:27:41;;;;;;;26.90;17.55;;;;;;;13.64;67.88;98751.34;5089421;28;20044;-74
2023/04/17 10:30:09;;;;;;;23.55;17.13;;;;;;;13.69;68.06;98746.53;5089351;28;20588;-74
2023/04/17 10:32:35;;;;;;;24.23;15.60;;;;;;;13.82;67.77;98744.06;5089528;28;20071;-75
2023/04/17 10:35:20;;;;;;;22.10;15.57;;;;;;;13.83;67.59;98748.44;5089512;28;20020;-75
2023/04/17 10:37:46;;;;;;;20.50;14.38;;;;;;;13.96;66.90;98742.09;5088909;28;20056;-73
2023/04/17 10:40:19;;;;;;;20.23;14.70;;;;;;;13.99;66.24;98738.72;5088930;28;20043;-73
2023/04/17 10:43:07;;;;;;;25.80;15.73;;;;;;;13.92;66.41;98741.06;5088928;28;20028;-74
2023/04/17 10:46:10;;;;;;;23.67;14.52;;;;;;;13.97;65.83;98735.44;5087758;28;20032;-74
2023/04/17 10:48:45;;;;;;;23.17;15.57;;;;;;;14.03;66.88;98735.31;5090767;28;20110;-72
2023/04/17 10:51:23;;;;;;;23.70;14.63;;;;;;;14.13;66.60;98735.06;5089140;28;20028;-75
2023/04/17 10:53:54;;;;;;;20.92;14.63;;;;;;;14.18;65.92;98732.19;5091205;28;20027;-72
2023/04/17 10:56:29;;;;;;;18.98;13.57;;;;;;;14.21;66.09;98733.50;5091187;28;20021;-72
2023/04/17 10:58:59;;;;;;;21.10;14.90;;;;;;;14.12;64.06;98725.16;5089000;28;20206;-74
2023/04/17 11:01:38;;;;;;;21.50;14.68;;;;;;;14.01;64.95;98719.06;5092802;28;20032;-74
2023/04/17 11:04:04;;;;;;;22.55;14.32;;;;;;;14.06;65.53;98721.72;5088149;28;20028;-74
2023/04/17 11:06:32;;;;;;;24.05;14.63;;;;;;;14.06;65.14;98718.94;5093171;28;20027;-75
2023/04/17 11:08:59;;;;;;;21.10;13.77;;;;;;;14.07;64.54;98714.25;5092043;28;20032;-72
2023/04/17 11:11:25;;;;;;;21.48;14.40;;;;;;;14.01;64.96;98719.06;5092103;28;20036;-71
2023/04/17 11:13:51;;;;;;;20.60;13.52;;;;;;;13.96;64.87;98709.00;5091750;28;20036;-72
2023/04/17 11:16:19;;;;;;;20.35;13.65;;;;;;;13.98;65.19;98709.50;5091169;28;20088;-74
2023/04/17 11:18:45;;;;;;;20.88;13.55;;;;;;;14.06;65.29;98715.41;5092462;28;20024;-74
2023/04/17 11:21:12;;;;;;;20.35;13.77;;;;;;;14.09;64.20;98711.97;5092012;28;20055;-74